Saint Helena Island, United Kingdom
Current Conditions -  °F | °C
As of 9:50 AM on Thursday 18 Dec 2014 (Local Time) from FHAW Reporting Station
Few Clouds Few Clouds  
Wind Chill: 75°   Ceiling: Unl
Heat Index: 75°   Visibility: 6mi
Dew Point: 66°   Wind: 15mph
Humidity: 73%   Direction: 130°SE
Pressure: 29.97"   Gusts: NA
Location:  15.93°S, 5.07°W
Report Text: FHAW 180850Z 13013KT 9999 FEW023 24/19 Q1015 BLU NOSIG
Loading
Personal Weather Stations






























Interactive Weather Map New forecast layout! Learn more

10-Day Weather Forecast

Advertisements
Track Severe Weather on mobile